Time;durP1;ratioP1;P1;durP2;ratioP2;P2;SDS_P1;SDS_P2;PMS_P1;PMS_P2;Temp;Humidity;BMP_temperature;BMP_pressure;BME280_temperature;BME280_humidity;BME280_pressure;Samples;Min_cycle;Max_cycle;Signal;HPM_P1;HPM_P2
2023/03/25 00:00:14;;;;;;;6.10;5.47;;;8.70;99.90;;;;;;5093068;28;20484;-70
2023/03/25 00:02:43;;;;;;;5.40;5.00;;;8.70;99.90;;;;;;5095419;28;20468;-69
2023/03/25 00:05:11;;;;;;;4.97;4.57;;;8.70;99.90;;;;;;5092152;28;20918;-71
2023/03/25 00:07:38;;;;;;;4.63;4.23;;;8.70;99.90;;;;;;5100114;28;20568;-71
2023/03/25 00:10:06;;;;;;;8.40;4.37;;;8.70;99.90;;;;;;5097205;28;20474;-70
2023/03/25 00:12:33;;;;;;;4.07;3.77;;;8.70;99.90;;;;;;5091799;28;20470;-70
2023/03/25 00:15:00;;;;;;;4.23;4.03;;;8.70;99.90;;;;;;5093817;28;20465;-70
2023/03/25 00:17:27;;;;;;;5.00;4.20;;;8.80;99.90;;;;;;5092026;28;20473;-70
2023/03/25 00:19:56;;;;;;;6.90;4.67;;;8.80;99.90;;;;;;5099554;28;20528;-71
2023/03/25 00:22:24;;;;;;;5.53;4.00;;;8.90;99.90;;;;;;5092490;28;20492;-69
2023/03/25 00:24:50;;;;;;;4.83;4.40;;;8.90;99.90;;;;;;5092675;28;20866;-70
2023/03/25 00:27:18;;;;;;;12.30;4.57;;;8.90;99.90;;;;;;5095155;28;20469;-71
2023/03/25 00:29:45;;;;;;;4.93;4.53;;;9.00;99.90;;;;;;5099481;28;20488;-69
2023/03/25 00:32:14;;;;;;;9.13;4.57;;;9.00;99.90;;;;;;5090787;28;21455;-70
2023/03/25 00:34:46;;;;;;;10.33;4.97;;;9.00;99.90;;;;;;5096176;28;20538;-70
2023/03/25 00:37:16;;;;;;;5.20;4.63;;;9.10;99.90;;;;;;5089140;28;20497;-69
2023/03/25 00:39:43;;;;;;;5.60;4.90;;;9.20;99.90;;;;;;5093033;28;20904;-71
2023/03/25 00:42:12;;;;;;;5.70;5.20;;;9.10;99.90;;;;;;5095138;28;20570;-70
2023/03/25 00:44:39;;;;;;;6.07;5.53;;;9.10;99.90;;;;;;5089948;28;20490;-70
2023/03/25 00:47:06;;;;;;;10.23;6.03;;;9.10;99.90;;;;;;5093950;28;20864;-69
2023/03/25 00:49:33;;;;;;;6.37;5.77;;;9.10;99.90;;;;;;5094974;28;20461;-70
2023/03/25 00:52:00;;;;;;;7.80;6.57;;;9.00;99.90;;;;;;5092081;28;20833;-71
2023/03/25 00:54:28;;;;;;;6.23;5.77;;;9.00;99.90;;;;;;5094479;28;20572;-69
2023/03/25 00:56:55;;;;;;;9.70;6.50;;;8.90;99.90;;;;;;5088167;28;20941;-71
2023/03/25 00:59:22;;;;;;;7.37;6.23;;;8.90;99.90;;;;;;5087298;28;21048;-70
2023/03/25 01:01:52;;;;;;;6.83;6.43;;;8.90;99.90;;;;;;5089387;28;20466;-70
2023/03/25 01:04:19;;;;;;;6.53;6.03;;;9.00;99.90;;;;;;5094945;28;20977;-68
2023/03/25 01:06:50;;;;;;;7.30;6.47;;;9.10;99.90;;;;;;5093215;28;20491;-71
2023/03/25 01:09:19;;;;;;;10.83;7.00;;;9.10;99.90;;;;;;5098138;28;20454;-69
2023/03/25 01:11:48;;;;;;;6.90;6.50;;;9.10;99.90;;;;;;5093680;28;20805;-69
2023/03/25 01:14:17;;;;;;;7.33;6.90;;;9.10;99.90;;;;;;5089046;28;20451;-69
2023/03/25 01:16:45;;;;;;;7.23;6.60;;;9.00;99.90;;;;;;5087884;28;20586;-70
2023/03/25 01:19:13;;;;;;;7.13;6.50;;;8.90;99.90;;;;;;5091595;28;20865;-71
2023/03/25 01:21:40;;;;;;;6.97;6.37;;;8.90;99.90;;;;;;5090707;28;20556;-72
2023/03/25 01:24:10;;;;;;;6.37;5.90;;;8.80;99.90;;;;;;5091232;28;20457;-70
2023/03/25 01:26:37;;;;;;;10.47;6.17;;;8.80;99.90;;;;;;5088425;28;20470;-71
2023/03/25 01:29:05;;;;;;;6.60;6.07;;;8.60;99.90;;;;;;5088295;28;20577;-71
2023/03/25 01:31:32;;;;;;;6.40;6.00;;;8.60;99.90;;;;;;5089439;28;20968;-71
2023/03/25 01:33:59;;;;;;;6.13;5.60;;;8.60;99.90;;;;;;5095966;28;20469;-69
2023/03/25 01:36:28;;;;;;;6.27;5.77;;;8.50;99.90;;;;;;5092557;28;20462;-69
2023/03/25 01:38:57;;;;;;;7.90;6.40;;;8.50;99.90;;;;;;5096647;28;20592;-71
2023/03/25 01:41:24;;;;;;;6.47;5.70;;;8.50;99.90;;;;;;5095644;28;20461;-69
2023/03/25 01:44:02;;;;;;;6.37;6.00;;;8.40;99.90;;;;;;5098266;28;20935;-69
2023/03/25 01:46:30;;;;;;;6.40;5.90;;;8.40;99.90;;;;;;5086152;28;20489;-71
2023/03/25 01:48:59;;;;;;;6.70;6.03;;;8.40;99.90;;;;;;5093831;28;20463;-71
2023/03/25 01:51:30;;;;;;;5.97;5.47;;;8.30;99.90;;;;;;5095611;28;20585;-70
2023/03/25 01:53:59;;;;;;;6.10;5.70;;;8.30;99.90;;;;;;5093267;28;20530;-70
2023/03/25 01:56:30;;;;;;;5.93;5.57;;;8.20;99.90;;;;;;5088528;28;20891;-69
2023/03/25 01:58:58;;;;;;;6.10;5.70;;;8.20;99.90;;;;;;5091246;28;20893;-71
2023/03/25 02:01:26;;;;;;;6.83;6.20;;;8.20;99.90;;;;;;5087245;28;21141;-71
2023/03/25 02:04:01;;;;;;;5.87;5.67;;;8.20;99.90;;;;;;5096095;28;20468;-70
2023/03/25 02:06:33;;;;;;;5.37;5.17;;;8.20;99.90;;;;;;5087418;28;20464;-69
2023/03/25 02:09:05;;;;;;;5.60;5.30;;;8.20;99.90;;;;;;5089931;28;20559;-68
2023/03/25 02:11:32;;;;;;;10.90;5.63;;;8.10;99.90;;;;;;5090489;28;20473;-71
2023/03/25 02:14:02;;;;;;;5.60;5.20;;;8.20;99.90;;;;;;5091129;28;20699;-71
2023/03/25 02:16:37;;;;;;;6.23;5.83;;;8.20;99.90;;;;;;5087665;28;20464;-71
2023/03/25 02:19:31;;;;;;;5.87;5.17;;;8.30;99.90;;;;;;5097183;28;20487;-71
2023/03/25 02:22:27;;;;;;;8.00;5.57;;;8.30;99.90;;;;;;5071840;28;20540;-70
2023/03/25 02:25:14;;;;;;;5.93;5.43;;;8.40;99.90;;;;;;5079823;28;20465;-71
2023/03/25 02:27:52;;;;;;;5.57;5.27;;;8.30;99.90;;;;;;5093362;28;20457;-69
2023/03/25 02:30:53;;;;;;;5.80;5.43;;;8.20;99.90;;;;;;5092437;28;20955;-70
2023/03/25 02:33:57;;;;;;;4.97;4.77;;;8.20;99.90;;;;;;5085811;28;20467;-71
2023/03/25 02:36:43;;;;;;;5.60;5.20;;;8.20;99.90;;;;;;5088118;28;20461;-71
2023/03/25 02:39:17;;;;;;;5.60;5.17;;;8.20;99.90;;;;;;5086661;28;20628;-70
2023/03/25 02:41:49;;;;;;;8.10;5.47;;;8.20;99.90;;;;;;5087068;28;21213;-71
2023/03/25 02:44:25;;;;;;;5.70;5.20;;;8.30;99.90;;;;;;5092097;28;20487;-70
2023/03/25 02:46:57;;;;;;;5.80;5.30;;;8.30;99.90;;;;;;5082715;28;21101;-71
2023/03/25 02:49:28;;;;;;;4.93;4.73;;;8.30;99.90;;;;;;5093418;28;20468;-70
2023/03/25 02:52:00;;;;;;;5.80;5.30;;;8.40;99.90;;;;;;5090433;28;21287;-72
2023/03/25 02:54:32;;;;;;;6.17;4.93;;;8.40;99.90;;;;;;5087777;28;20463;-71
2023/03/25 02:57:00;;;;;;;5.13;4.73;;;8.50;99.90;;;;;;5088913;28;20553;-69
2023/03/25 02:59:29;;;;;;;5.10;4.80;;;8.50;99.90;;;;;;5090309;28;20500;-70
2023/03/25 03:01:57;;;;;;;5.80;5.20;;;8.60;99.90;;;;;;5092647;28;20552;-71
2023/03/25 03:04:25;;;;;;;8.70;5.73;;;8.60;99.90;;;;;;5099373;28;20537;-71
2023/03/25 03:06:53;;;;;;;6.40;5.47;;;8.60;99.90;;;;;;5091257;28;20559;-71
2023/03/25 03:09:38;;;;;;;8.83;6.20;;;8.70;99.90;;;;;;5093430;28;20477;-71
2023/03/25 03:12:20;;;;;;;8.40;6.13;;;8.70;99.90;;;;;;5095492;28;20479;-71
2023/03/25 03:15:02;;;;;;;8.57;6.47;;;8.70;99.90;;;;;;5090025;28;20465;-71
2023/03/25 03:17:37;;;;;;;6.20;5.70;;;8.60;99.90;;;;;;5096089;28;20460;-70
2023/03/25 03:20:16;;;;;;;7.40;5.77;;;8.50;99.90;;;;;;5094842;28;20578;-70
2023/03/25 03:22:51;;;;;;;7.87;5.93;;;8.50;99.90;;;;;;5096099;28;20466;-70
2023/03/25 03:25:26;;;;;;;6.67;5.43;;;8.40;99.90;;;;;;5096996;28;20529;-71
2023/03/25 03:27:57;;;;;;;6.30;5.70;;;8.40;99.90;;;;;;5096213;28;20464;-70
2023/03/25 03:30:29;;;;;;;6.87;6.27;;;8.50;99.90;;;;;;5100055;28;20566;-70
2023/03/25 03:33:02;;;;;;;8.60;8.03;;;8.40;99.90;;;;;;5099616;27;20485;-69
2023/03/25 03:35:33;;;;;;;7.70;7.20;;;8.40;99.90;;;;;;5097742;28;20499;-70
2023/03/25 03:38:03;;;;;;;10.87;7.23;;;8.30;99.90;;;;;;5089161;28;20529;-71
2023/03/25 03:40:33;;;;;;;7.50;6.80;;;8.30;99.90;;;;;;5100324;28;20921;-71
2023/03/25 03:43:03;;;;;;;8.63;7.60;;;8.40;99.90;;;;;;5097278;28;20481;-70
2023/03/25 03:45:34;;;;;;;7.07;6.47;;;8.40;99.90;;;;;;5091306;28;20479;-70
2023/03/25 03:48:06;;;;;;;7.83;6.83;;;8.40;99.90;;;;;;5092041;28;20468;-70
2023/03/25 03:50:38;;;;;;;7.83;7.20;;;8.40;99.90;;;;;;5090481;28;20582;-72
2023/03/25 03:53:11;;;;;;;8.10;7.50;;;8.50;99.90;;;;;;5096875;28;20465;-71
2023/03/25 03:55:42;;;;;;;6.43;6.10;;;8.50;99.90;;;;;;5093026;28;20510;-71
2023/03/25 03:58:15;;;;;;;6.57;6.07;;;8.60;99.90;;;;;;5095242;28;20457;-69
2023/03/25 04:00:48;;;;;;;8.13;6.60;;;8.50;99.90;;;;;;5094497;28;20481;-70
2023/03/25 04:03:22;;;;;;;6.10;5.70;;;8.50;99.90;;;;;;5090355;28;20544;-71
2023/03/25 04:05:53;;;;;;;6.63;5.87;;;8.60;99.90;;;;;;5096599;28;20457;-71
2023/03/25 04:08:28;;;;;;;7.00;6.30;;;8.60;99.90;;;;;;5090781;28;20458;-70
2023/03/25 04:11:03;;;;;;;5.83;5.43;;;8.70;99.90;;;;;;5092531;28;20567;-72
2023/03/25 04:13:34;;;;;;;6.63;5.90;;;8.70;99.90;;;;;;5090803;28;20463;-72
2023/03/25 04:16:02;;;;;;;16.47;7.40;;;8.80;99.90;;;;;;5088848;28;20472;-71
2023/03/25 04:18:32;;;;;;;18.33;7.43;;;8.80;99.90;;;;;;5094968;28;20463;-71
2023/03/25 04:20:59;;;;;;;8.33;7.37;;;8.90;99.90;;;;;;5094882;28;20920;-71
2023/03/25 04:23:28;;;;;;;7.37;6.63;;;8.90;99.90;;;;;;5095289;28;20881;-71
2023/03/25 04:26:01;;;;;;;7.10;6.53;;;8.90;99.90;;;;;;5096709;28;20466;-71
2023/03/25 04:28:28;;;;;;;11.27;7.70;;;8.90;99.90;;;;;;5097368;28;20486;-70
2023/03/25 04:30:56;;;;;;;8.63;7.73;;;9.00;99.90;;;;;;5089732;28;20477;-69
2023/03/25 04:33:23;;;;;;;7.63;7.27;;;8.90;99.90;;;;;;5099320;28;20465;-70
2023/03/25 04:35:50;;;;;;;9.60;7.30;;;9.00;99.90;;;;;;5092362;28;20526;-69
2023/03/25 04:38:17;;;;;;;8.93;8.03;;;9.00;99.90;;;;;;5093159;28;20465;-71
2023/03/25 04:40:45;;;;;;;8.67;7.90;;;9.00;99.90;;;;;;5098455;28;20500;-69
2023/03/25 04:43:13;;;;;;;9.50;8.80;;;9.00;99.90;;;;;;5095978;28;20521;-71
2023/03/25 04:45:48;;;;;;;8.33;7.70;;;9.00;99.90;;;;;;5092034;28;20852;-71
2023/03/25 04:48:22;;;;;;;8.40;7.47;;;8.90;99.90;;;;;;5094884;28;20821;-70
2023/03/25 04:50:51;;;;;;;9.50;8.70;;;8.90;99.90;;;;;;5092715;28;20551;-71
2023/03/25 04:53:17;;;;;;;7.93;7.33;;;8.80;99.90;;;;;;5090345;28;20505;-69
2023/03/25 04:55:49;;;;;;;13.13;7.10;;;8.80;99.90;;;;;;5090809;28;21377;-71
2023/03/25 04:58:17;;;;;;;8.37;7.03;;;8.80;99.90;;;;;;5092015;28;20462;-70
2023/03/25 05:00:48;;;;;;;7.77;7.13;;;8.80;99.90;;;;;;5091957;28;20489;-71
2023/03/25 05:03:15;;;;;;;7.43;6.80;;;8.90;99.90;;;;;;5095323;28;20467;-70
2023/03/25 05:05:42;;;;;;;9.57;6.70;;;8.80;99.90;;;;;;5090491;27;20463;-71
2023/03/25 05:08:10;;;;;;;7.23;6.73;;;8.80;99.90;;;;;;5089984;28;20523;-71
2023/03/25 05:10:37;;;;;;;10.23;7.60;;;8.90;99.90;;;;;;5085212;28;20498;-72
2023/03/25 05:13:06;;;;;;;8.93;8.17;;;8.80;99.90;;;;;;5093082;28;20976;-70
2023/03/25 05:15:38;;;;;;;7.83;7.10;;;8.90;99.90;;;;;;5089873;28;20529;-69
2023/03/25 05:18:05;;;;;;;7.33;6.63;;;8.70;99.90;;;;;;5098103;28;20457;-71
2023/03/25 05:20:33;;;;;;;7.03;6.13;;;8.60;99.90;;;;;;5094971;28;20873;-72
2023/03/25 05:23:00;;;;;;;6.93;6.27;;;8.60;99.90;;;;;;5094026;28;20464;-71
2023/03/25 05:25:27;;;;;;;6.20;5.77;;;8.60;99.90;;;;;;5094166;28;20952;-70
2023/03/25 05:27:55;;;;;;;7.83;7.10;;;8.60;99.90;;;;;;5092293;28;20473;-70
2023/03/25 05:30:23;;;;;;;9.13;6.37;;;8.60;99.90;;;;;;5093685;28;20531;-72
2023/03/25 05:32:52;;;;;;;9.63;7.30;;;8.70;99.90;;;;;;5087774;28;20501;-71
2023/03/25 05:35:19;;;;;;;7.70;7.00;;;8.80;99.90;;;;;;5092865;28;21031;-71
2023/03/25 05:37:49;;;;;;;10.53;6.73;;;8.70;99.90;;;;;;5086635;28;20462;-70
2023/03/25 05:40:15;;;;;;;6.93;6.07;;;8.80;99.90;;;;;;5098697;28;20492;-70
2023/03/25 05:42:47;;;;;;;9.87;6.97;;;8.80;99.90;;;;;;5086605;28;20486;-71
2023/03/25 05:45:15;;;;;;;11.00;6.67;;;8.90;99.90;;;;;;5092289;28;20888;-71
2023/03/25 05:47:44;;;;;;;7.07;6.40;;;8.90;99.90;;;;;;5088671;28;20543;-71
2023/03/25 05:50:13;;;;;;;7.97;7.20;;;8.80;99.90;;;;;;5091432;28;20516;-70
2023/03/25 05:52:41;;;;;;;7.73;6.97;;;8.90;99.90;;;;;;5088224;28;21447;-70
2023/03/25 05:55:11;;;;;;;9.70;9.10;;;8.90;99.90;;;;;;5089079;28;20461;-69
2023/03/25 05:57:38;;;;;;;11.40;10.50;;;8.80;99.90;;;;;;5088896;28;20635;-69
2023/03/25 06:00:07;;;;;;;14.43;13.37;;;8.70;99.90;;;;;;5089863;28;20478;-69
2023/03/25 06:02:37;;;;;;;18.10;16.80;;;8.60;99.90;;;;;;5089109;28;20485;-68
2023/03/25 06:05:05;;;;;;;19.30;18.00;;;8.50;99.90;;;;;;5090062;28;20470;-68
2023/03/25 06:07:33;;;;;;;20.17;18.10;;;8.40;99.90;;;;;;5091457;28;20534;-69
2023/03/25 06:10:00;;;;;;;19.90;18.00;;;8.30;99.90;;;;;;5087637;28;20461;-70
2023/03/25 06:12:28;;;;;;;19.00;17.07;;;8.20;99.90;;;;;;5093668;28;20820;-70
2023/03/25 06:14:55;;;;;;;18.23;16.83;;;8.20;99.90;;;;;;5090730;28;20462;-70
2023/03/25 06:17:22;;;;;;;17.80;16.57;;;8.10;99.90;;;;;;5094700;28;20951;-70
2023/03/25 06:19:50;;;;;;;18.40;16.70;;;8.10;99.90;;;;;;5086738;28;20544;-70
2023/03/25 06:22:19;;;;;;;17.63;16.00;;;8.10;99.90;;;;;;5093012;28;20931;-70
2023/03/25 06:24:48;;;;;;;19.53;15.13;;;8.00;99.90;;;;;;5086789;28;21081;-69
2023/03/25 06:27:17;;;;;;;15.73;14.90;;;8.10;99.90;;;;;;5094921;28;20838;-68
2023/03/25 06:29:44;;;;;;;15.73;14.47;;;8.10;99.90;;;;;;5099645;28;20568;-70
2023/03/25 06:32:14;;;;;;;16.07;14.70;;;8.10;99.90;;;;;;5092562;28;20508;-70
2023/03/25 06:34:42;;;;;;;17.90;16.33;;;8.10;99.90;;;;;;5089304;28;20496;-69
2023/03/25 06:37:10;;;;;;;15.23;14.00;;;8.10;99.90;;;;;;5097881;28;20542;-70
2023/03/25 06:39:37;;;;;;;15.40;13.90;;;8.10;99.90;;;;;;5094685;28;20981;-70
2023/03/25 06:42:06;;;;;;;15.27;13.90;;;8.10;99.90;;;;;;5097186;28;20935;-71
2023/03/25 06:44:33;;;;;;;13.00;12.03;;;8.10;99.90;;;;;;5098344;28;20552;-69
2023/03/25 06:47:01;;;;;;;12.70;11.50;;;8.20;99.90;;;;;;5093734;28;20465;-71
2023/03/25 06:49:28;;;;;;;12.17;11.47;;;8.20;99.90;;;;;;5092335;28;20483;-69
2023/03/25 06:51:54;;;;;;;12.70;10.73;;;8.20;99.90;;;;;;5093085;28;20461;-70
2023/03/25 06:54:21;;;;;;;12.40;10.73;;;8.20;99.90;;;;;;5096610;28;20698;-70
2023/03/25 06:56:48;;;;;;;12.33;9.50;;;8.30;99.90;;;;;;5093181;28;21134;-69
2023/03/25 06:59:16;;;;;;;10.73;8.90;;;8.30;99.90;;;;;;5093518;28;21162;-70
2023/03/25 07:01:43;;;;;;;10.03;9.03;;;8.30;99.90;;;;;;5095288;28;20825;-69
2023/03/25 07:04:10;;;;;;;8.40;7.70;;;8.40;99.90;;;;;;5090172;28;20476;-69
2023/03/25 07:06:36;;;;;;;9.53;6.70;;;8.40;99.90;;;;;;5092034;28;20865;-70
2023/03/25 07:09:03;;;;;;;7.80;6.37;;;8.50;99.90;;;;;;5099700;28;20489;-71
2023/03/25 07:11:32;;;;;;;8.20;6.90;;;8.50;99.90;;;;;;5098082;28;20457;-71
2023/03/25 07:13:59;;;;;;;7.60;6.00;;;8.60;99.90;;;;;;5092154;28;20453;-71
2023/03/25 07:16:27;;;;;;;11.23;6.10;;;8.70;99.90;;;;;;5093338;28;20456;-69
2023/03/25 07:18:55;;;;;;;8.33;6.90;;;8.70;99.90;;;;;;5092385;28;20971;-72
2023/03/25 07:21:23;;;;;;;10.63;6.63;;;8.80;99.90;;;;;;5094410;28;20480;-71
2023/03/25 07:23:50;;;;;;;9.33;7.17;;;8.70;99.90;;;;;;5098283;28;20556;-71
2023/03/25 07:26:17;;;;;;;10.77;7.33;;;8.80;99.90;;;;;;5092714;28;20873;-72
2023/03/25 07:28:44;;;;;;;10.63;7.33;;;8.70;99.90;;;;;;5091802;28;20458;-71
2023/03/25 07:31:12;;;;;;;12.93;7.57;;;8.60;99.90;;;;;;5091927;28;20462;-72
2023/03/25 07:33:41;;;;;;;8.90;6.70;;;8.60;99.90;;;;;;5089897;28;20971;-71
2023/03/25 07:36:10;;;;;;;13.27;7.33;;;8.50;99.90;;;;;;5092585;28;20813;-69
2023/03/25 07:38:37;;;;;;;8.57;7.70;;;8.50;99.90;;;;;;5093090;28;20464;-71
2023/03/25 07:41:06;;;;;;;14.67;7.03;;;8.50;99.90;;;;;;5095124;28;20486;-71
2023/03/25 07:43:33;;;;;;;9.07;6.80;;;8.60;99.90;;;;;;5091638;28;20481;-71
2023/03/25 07:45:59;;;;;;;11.17;7.63;;;8.70;99.90;;;;;;5089123;28;20767;-71
2023/03/25 07:48:27;;;;;;;7.27;6.67;;;8.70;99.90;;;;;;5094291;28;20472;-71
2023/03/25 07:50:55;;;;;;;7.40;6.80;;;8.90;99.90;;;;;;5091383;28;20458;-71
2023/03/25 07:53:22;;;;;;;10.47;7.93;;;9.10;99.90;;;;;;5089939;28;20462;-71
2023/03/25 07:55:50;;;;;;;9.10;8.40;;;9.30;99.90;;;;;;5091926;28;20462;-69
2023/03/25 07:58:17;;;;;;;11.83;8.70;;;9.40;99.90;;;;;;5092160;28;21012;-69
2023/03/25 08:00:45;;;;;;;10.70;7.47;;;9.50;99.90;;;;;;5089473;28;20729;-71
2023/03/25 08:03:12;;;;;;;12.07;8.10;;;9.70;99.90;;;;;;5094160;28;20468;-71
2023/03/25 08:05:45;;;;;;;9.20;8.40;;;9.70;99.90;;;;;;5095372;28;20547;-69
2023/03/25 08:08:14;;;;;;;11.90;8.80;;;9.70;99.90;;;;;;5094780;28;20468;-70
2023/03/25 08:10:42;;;;;;;9.63;8.57;;;9.80;99.90;;;;;;5087600;28;20811;-71
2023/03/25 08:13:09;;;;;;;15.23;9.97;;;9.80;99.90;;;;;;5087851;28;20552;-71
2023/03/25 08:15:36;;;;;;;11.83;10.30;;;9.70;99.90;;;;;;5094313;28;20512;-70
2023/03/25 08:18:05;;;;;;;10.33;9.50;;;9.70;99.90;;;;;;5093310;28;20457;-70
2023/03/25 08:20:32;;;;;;;11.37;10.50;;;10.00;99.90;;;;;;5089042;28;20563;-70
2023/03/25 08:22:59;;;;;;;11.47;10.30;;;10.20;99.90;;;;;;5090222;28;20486;-70
2023/03/25 08:25:28;;;;;;;13.53;10.80;;;10.40;99.90;;;;;;5097118;28;20690;-69
2023/03/25 08:27:55;;;;;;;11.93;11.03;;;10.30;99.90;;;;;;5090019;28;20468;-70
2023/03/25 08:30:22;;;;;;;17.57;12.40;;;10.30;99.90;;;;;;5089750;28;20485;-71
2023/03/25 08:32:53;;;;;;;13.00;11.77;;;10.20;99.90;;;;;;5092975;28;20458;-70
2023/03/25 08:35:20;;;;;;;14.43;12.60;;;10.20;99.90;;;;;;5093990;28;20977;-71
2023/03/25 08:37:48;;;;;;;13.70;12.70;;;10.20;99.90;;;;;;5090390;28;20585;-71
2023/03/25 08:40:16;;;;;;;14.20;12.73;;;10.30;99.90;;;;;;5086561;28;20473;-70
2023/03/25 08:42:45;;;;;;;12.50;11.37;;;10.40;99.90;;;;;;5089017;28;20580;-71
2023/03/25 08:45:14;;;;;;;13.03;11.80;;;10.40;99.90;;;;;;5088315;28;20545;-69
2023/03/25 08:47:41;;;;;;;14.47;13.20;;;10.60;99.90;;;;;;5092390;28;20457;-71
2023/03/25 08:50:09;;;;;;;13.20;11.97;;;10.80;99.90;;;;;;5092168;28;20544;-70
2023/03/25 08:52:36;;;;;;;17.13;11.87;;;10.80;99.90;;;;;;5083930;28;20870;-70
2023/03/25 08:55:04;;;;;;;20.70;13.60;;;11.00;99.90;;;;;;5092431;28;20484;-70
2023/03/25 08:57:31;;;;;;;15.33;13.83;;;11.10;99.90;;;;;;5086770;28;20484;-71
2023/03/25 08:59:59;;;;;;;15.30;13.80;;;11.10;99.90;;;;;;5092132;28;20465;-70
2023/03/25 09:02:27;;;;;;;20.47;14.23;;;11.20;99.90;;;;;;5094522;28;20607;-71
2023/03/25 09:04:54;;;;;;;14.40;13.20;;;11.20;99.90;;;;;;5090116;28;20502;-71
2023/03/25 09:07:22;;;;;;;15.30;13.90;;;11.10;99.90;;;;;;5085766;28;20545;-70
2023/03/25 09:09:49;;;;;;;18.00;13.43;;;11.00;99.90;;;;;;5084673;28;20462;-71
2023/03/25 09:12:16;;;;;;;14.97;13.57;;;11.00;99.90;;;;;;5092341;28;20450;-70
2023/03/25 09:14:43;;;;;;;15.00;14.00;;;11.20;99.90;;;;;;5090666;28;20481;-69
2023/03/25 09:17:11;;;;;;;16.80;14.33;;;11.40;99.90;;;;;;5089937;28;21359;-69
2023/03/25 09:19:39;;;;;;;16.30;14.73;;;11.40;99.90;;;;;;5087488;28;20457;-72
2023/03/25 09:22:07;;;;;;;15.73;14.00;;;11.30;99.90;;;;;;5088293;28;20595;-71
2023/03/25 09:24:35;;;;;;;16.13;14.83;;;11.40;99.90;;;;;;5096982;28;20808;-69
2023/03/25 09:27:02;;;;;;;15.73;14.30;;;11.40;99.90;;;;;;5095369;28;20464;-71
2023/03/25 09:29:29;;;;;;;24.80;16.17;;;11.40;99.90;;;;;;5092488;28;21158;-70
2023/03/25 09:31:57;;;;;;;15.20;14.03;;;11.30;99.90;;;;;;5091004;28;20832;-71
2023/03/25 09:34:25;;;;;;;23.27;14.67;;;11.10;99.90;;;;;;5091886;28;20494;-69
2023/03/25 09:36:53;;;;;;;16.47;15.13;;;11.30;99.90;;;;;;5092994;28;20561;-71
2023/03/25 09:39:20;;;;;;;16.47;14.90;;;11.60;99.90;;;;;;5097174;28;20488;-70
2023/03/25 09:42:06;;;;;;;17.00;14.20;;;11.50;99.90;;;;;;5091925;28;20851;-71
2023/03/25 09:44:38;;;;;;;15.50;13.97;;;11.50;99.90;;;;;;5089315;28;20466;-71
2023/03/25 09:47:09;;;;;;;18.00;14.63;;;11.80;99.90;;;;;;5085554;28;20470;-70
2023/03/25 09:49:40;;;;;;;15.63;14.10;;;11.70;99.90;;;;;;5089787;28;20458;-70
2023/03/25 09:52:13;;;;;;;16.20;14.70;;;11.60;99.90;;;;;;5091915;28;20470;-71
2023/03/25 09:54:45;;;;;;;14.63;13.53;;;11.50;99.90;;;;;;5089463;28;20472;-71
2023/03/25 09:57:17;;;;;;;15.93;14.13;;;11.40;99.90;;;;;;5091125;28;20484;-71
2023/03/25 09:59:48;;;;;;;16.03;13.90;;;11.50;99.90;;;;;;5088388;28;20477;-72
2023/03/25 10:02:28;;;;;;;15.93;14.50;;;11.90;99.90;;;;;;5092164;28;20795;-71
2023/03/25 10:05:15;;;;;;;15.33;14.10;;;12.00;99.90;;;;;;5090523;28;20474;-71
2023/03/25 10:08:01;;;;;;;14.77;13.63;;;12.10;99.90;;;;;;5089208;28;20462;-71
2023/03/25 10:10:32;;;;;;;15.93;14.40;;;12.20;99.90;;;;;;5089928;28;20468;-71
2023/03/25 10:13:08;;;;;;;22.53;15.07;;;12.00;99.90;;;;;;5092436;28;20930;-71
2023/03/25 10:15:39;;;;;;;17.63;15.43;;;12.40;99.90;;;;;;5087122;28;20811;-72
2023/03/25 10:18:26;;;;;;;16.13;14.60;;;12.60;99.90;;;;;;5098194;28;20950;-71
2023/03/25 10:21:02;;;;;;;15.60;14.23;;;12.70;99.90;;;;;;5100238;28;20478;-70
2023/03/25 10:23:37;;;;;;;14.20;13.20;;;12.60;99.90;;;;;;5097883;28;20499;-70
2023/03/25 10:26:10;;;;;;;15.30;14.00;;;12.30;99.90;;;;;;5091334;28;20474;-70
2023/03/25 10:28:42;;;;;;;15.83;13.80;;;12.10;99.90;;;;;;5089665;28;20964;-71
2023/03/25 10:31:15;;;;;;;14.27;13.30;;;12.10;99.90;;;;;;5088991;28;20463;-69
2023/03/25 10:33:50;;;;;;;15.60;13.83;;;12.10;99.90;;;;;;5085703;28;20844;-71
2023/03/25 10:36:20;;;;;;;17.90;13.80;;;12.30;99.90;;;;;;5085449;28;20509;-71
2023/03/25 10:38:53;;;;;;;17.20;15.50;;;12.20;99.90;;;;;;5097251;28;20799;-72
2023/03/25 10:41:25;;;;;;;16.50;14.93;;;12.30;99.90;;;;;;5094127;28;20785;-70
2023/03/25 10:43:52;;;;;;;17.37;15.17;;;12.60;99.90;;;;;;5094764;28;20889;-70
2023/03/25 10:46:27;;;;;;;16.47;15.00;;;12.80;99.90;;;;;;5088659;28;20498;-70
2023/03/25 10:48:54;;;;;;;14.90;13.47;;;12.70;99.90;;;;;;5091400;28;20464;-70
2023/03/25 10:51:26;;;;;;;14.93;13.80;;;12.90;99.90;;;;;;5091648;28;20461;-69
2023/03/25 10:53:54;;;;;;;14.57;13.33;;;13.20;99.90;;;;;;5094796;28;20550;-71
2023/03/25 10:56:24;;;;;;;26.77;14.70;;;13.50;99.90;;;;;;5089380;28;20518;-69
2023/03/25 10:58:54;;;;;;;15.40;14.23;;;13.60;99.90;;;;;;5085757;28;20949;-69
2023/03/25 11:01:26;;;;;;;14.77;13.60;;;13.20;99.90;;;;;;5091626;28;20598;-70
2023/03/25 11:03:54;;;;;;;13.87;12.93;;;13.10;99.90;;;;;;5091463;28;20825;-70
2023/03/25 11:06:28;;;;;;;14.57;13.43;;;13.40;99.90;;;;;;5087777;28;20471;-69
2023/03/25 11:09:11;;;;;;;14.00;13.10;;;13.30;99.90;;;;;;5094589;28;20933;-69
2023/03/25 11:11:38;;;;;;;14.67;13.30;;;12.80;99.90;;;;;;5086662;28;20466;-70
2023/03/25 11:14:05;;;;;;;13.37;12.47;;;12.80;99.90;;;;;;5091124;28;20469;-70
2023/03/25 11:16:33;;;;;;;15.37;13.30;;;12.80;99.90;;;;;;5085239;28;20468;-70
2023/03/25 11:19:02;;;;;;;15.00;13.80;;;13.20;99.90;;;;;;5094924;28;20462;-70
2023/03/25 11:21:33;;;;;;;15.47;14.03;;;13.30;99.90;;;;;;5094056;28;20876;-70
2023/03/25 11:24:01;;;;;;;14.10;13.03;;;13.10;99.90;;;;;;5101088;28;20514;-71
2023/03/25 11:26:32;;;;;;;14.93;13.53;;;12.80;99.90;;;;;;5100166;28;20468;-71
2023/03/25 11:29:05;;;;;;;14.70;13.17;;;12.90;99.90;;;;;;5095896;28;20481;-69
2023/03/25 11:31:34;;;;;;;13.80;12.63;;;12.50;99.90;;;;;;5091764;28;20454;-70
2023/03/25 11:34:06;;;;;;;14.73;13.33;;;12.20;99.90;;;;;;5091163;28;20483;-69
2023/03/25 11:36:36;;;;;;;16.10;14.63;;;11.80;99.90;;;;;;5089666;28;20465;-69
2023/03/25 11:39:15;;;;;;;21.00;18.80;;;11.60;99.90;;;;;;5093593;28;20458;-68
2023/03/25 11:41:46;;;;;;;29.13;19.60;;;10.90;99.90;;;;;;5096605;28;20457;-68
2023/03/25 11:44:22;;;;;;;20.87;19.00;;;10.50;99.90;;;;;;5096531;28;20548;-71
2023/03/25 11:46:52;;;;;;;20.03;18.33;;;10.20;99.90;;;;;;5090502;28;20926;-70
2023/03/25 11:49:22;;;;;;;32.30;19.10;;;10.00;99.90;;;;;;5093282;28;20548;-69
2023/03/25 11:51:57;;;;;;;18.83;17.17;;;9.80;99.90;;;;;;5091018;28;20488;-70
2023/03/25 11:54:26;;;;;;;18.93;16.93;;;9.50;99.90;;;;;;5089651;28;20470;-70
2023/03/25 11:56:55;;;;;;;17.27;14.30;;;9.40;99.90;;;;;;5090377;28;20972;-70
2023/03/25 11:59:25;;;;;;;29.07;15.20;;;9.40;99.90;;;;;;5088628;28;20895;-71
2023/03/25 12:02:01;;;;;;;24.30;14.23;;;9.30;99.90;;;;;;5094179;28;20457;-69
2023/03/25 12:04:28;;;;;;;25.33;15.37;;;9.30;99.90;;;;;;5094994;28;20465;-69
2023/03/25 12:06:59;;;;;;;15.97;13.57;;;9.20;99.90;;;;;;5091863;28;20468;-69
2023/03/25 12:09:27;;;;;;;16.97;13.80;;;9.30;99.90;;;;;;5093716;28;20884;-71
2023/03/25 12:12:07;;;;;;;18.03;13.10;;;9.40;99.90;;;;;;5096435;28;20769;-70
2023/03/25 12:14:48;;;;;;;22.20;14.07;;;9.50;99.90;;;;;;5100330;28;20929;-71
2023/03/25 12:17:23;;;;;;;17.37;12.10;;;9.50;99.90;;;;;;5088619;28;20457;-69
2023/03/25 12:20:04;;;;;;;41.63;10.33;;;9.80;99.90;;;;;;5093111;28;20534;-69
2023/03/25 12:22:47;;;;;;;15.90;10.80;;;10.20;99.90;;;;;;5092965;28;20509;-71
2023/03/25 12:25:26;;;;;;;12.90;10.20;;;10.30;99.90;;;;;;5090714;28;20557;-70
2023/03/25 12:28:07;;;;;;;20.07;13.07;;;10.40;99.90;;;;;;5092467;28;20453;-69
2023/03/25 12:30:43;;;;;;;18.93;13.70;;;10.40;99.90;;;;;;5087867;28;20817;-69
2023/03/25 12:33:25;;;;;;;20.80;17.10;;;10.40;99.90;;;;;;5089696;28;20461;-69
2023/03/25 12:36:05;;;;;;;22.63;20.40;;;10.30;99.90;;;;;;5088499;28;20473;-69
2023/03/25 12:38:45;;;;;;;19.70;18.30;;;10.00;99.90;;;;;;5099359;28;20453;-69
2023/03/25 12:41:20;;;;;;;19.57;17.97;;;10.00;99.90;;;;;;5091738;28;20539;-70
2023/03/25 12:44:05;;;;;;;19.03;16.13;;;10.00;99.90;;;;;;5095456;28;20500;-70
2023/03/25 12:46:50;;;;;;;25.60;15.80;;;10.00;99.90;;;;;;5094501;28;20492;-70
2023/03/25 12:49:34;;;;;;;18.90;16.97;;;10.10;99.90;;;;;;5092843;28;20561;-70
2023/03/25 12:52:08;;;;;;;19.17;17.40;;;10.10;99.90;;;;;;5090264;28;20460;-68
2023/03/25 12:54:55;;;;;;;21.20;19.07;;;10.00;99.90;;;;;;5094306;28;21070;-68
2023/03/25 12:57:38;;;;;;;26.33;19.30;;;9.70;99.90;;;;;;5094542;28;20651;-69
2023/03/25 13:00:25;;;;;;;25.00;18.60;;;9.60;99.90;;;;;;5090314;28;20470;-70